createdAt,value
2018-01-03T00:00:38.757Z,1.57
2018-01-03T00:03:07.991Z,1.70
2018-01-03T00:05:37.233Z,1.50
2018-01-03T00:08:06.054Z,3.47
2018-01-03T00:10:34.020Z,1.70
2018-01-03T00:13:02.574Z,1.93
2018-01-03T00:15:31.080Z,2.17
2018-01-03T00:17:59.458Z,2.37
2018-01-03T00:20:28.520Z,1.90
2018-01-03T00:22:58.588Z,1.90
2018-01-03T00:25:28.376Z,1.57
2018-01-03T00:27:56.529Z,1.90
2018-01-03T00:30:24.990Z,1.53
2018-01-03T00:32:52.923Z,1.70
2018-01-03T00:35:21.791Z,1.53
2018-01-03T00:37:50.057Z,1.67
2018-01-03T00:40:19.943Z,1.63
2018-01-03T00:42:48.068Z,1.70
2018-01-03T00:45:16.065Z,1.87
2018-01-03T00:47:44.081Z,1.60
2018-01-03T00:50:12.277Z,1.53
2018-01-03T00:52:42.504Z,1.53
2018-01-03T00:55:11.395Z,1.60
2018-01-03T00:57:39.841Z,1.30
2018-01-03T01:00:07.542Z,1.80
2018-01-03T01:02:35.996Z,1.53
2018-01-03T01:05:03.732Z,1.40
2018-01-03T01:07:31.400Z,1.03
2018-01-03T01:09:59.296Z,0.90
2018-01-03T01:12:26.956Z,1.00
2018-01-03T01:14:54.622Z,1.10
2018-01-03T01:17:22.285Z,0.70
2018-01-03T01:19:49.927Z,1.00
2018-01-03T01:22:17.596Z,0.90
2018-01-03T01:24:45.265Z,0.83
2018-01-03T01:27:12.910Z,0.93
2018-01-03T01:29:40.592Z,1.00
2018-01-03T01:32:09.064Z,0.90
2018-01-03T01:34:36.725Z,0.80
2018-01-03T01:37:04.392Z,1.30
2018-01-03T01:39:32.044Z,0.77
2018-01-03T01:41:59.690Z,0.70
2018-01-03T01:44:27.363Z,0.70
2018-01-03T01:46:55.031Z,1.30
2018-01-03T01:49:22.666Z,0.80
2018-01-03T01:51:50.336Z,0.90
2018-01-03T01:54:18.010Z,0.70
2018-01-03T01:56:45.632Z,0.93
2018-01-03T01:59:13.301Z,0.60
2018-01-03T02:01:40.977Z,0.80
2018-01-03T02:04:08.625Z,0.90
2018-01-03T02:06:36.295Z,0.67
2018-01-03T02:09:04.053Z,0.80
2018-01-03T02:11:31.694Z,0.83
2018-01-03T02:13:59.357Z,0.60
2018-01-03T02:16:27.045Z,0.50
2018-01-03T02:18:54.721Z,0.70
2018-01-03T02:21:23.162Z,0.73
2018-01-03T02:23:50.847Z,1.17
2018-01-03T02:26:18.480Z,0.60
2018-01-03T02:28:46.145Z,0.77
2018-01-03T02:31:13.829Z,0.80
2018-01-03T02:33:41.489Z,0.70
2018-01-03T02:36:09.145Z,1.30
2018-01-03T02:38:36.864Z,1.07
2018-01-03T02:41:04.501Z,0.77
2018-01-03T02:43:32.920Z,0.70
2018-01-03T02:46:00.620Z,0.70
2018-01-03T02:48:29.019Z,0.80
2018-01-03T02:50:56.705Z,0.97
2018-01-03T02:53:24.379Z,0.50
2018-01-03T02:55:51.992Z,1.20
2018-01-03T02:58:20.439Z,0.80
2018-01-03T03:00:48.099Z,1.17
2018-01-03T03:03:15.741Z,1.20
2018-01-03T03:05:43.407Z,1.10
2018-01-03T03:08:11.086Z,1.50
2018-01-03T03:10:38.715Z,1.30
2018-01-03T03:13:06.380Z,1.30
2018-01-03T03:15:34.072Z,1.43
2018-01-03T03:18:01.729Z,1.03
2018-01-03T03:20:29.402Z,1.00
2018-01-03T03:22:57.077Z,0.90
2018-01-03T03:25:24.710Z,1.13
2018-01-03T03:27:52.374Z,1.20
2018-01-03T03:30:20.814Z,0.97
2018-01-03T03:32:48.452Z,1.00
2018-01-03T03:35:16.130Z,1.00
2018-01-03T03:37:43.801Z,0.87
2018-01-03T03:40:11.457Z,0.80
2018-01-03T03:42:39.116Z,0.77
2018-01-03T03:45:06.783Z,0.80
2018-01-03T03:47:34.420Z,1.00
2018-01-03T03:50:02.091Z,0.80
2018-01-03T03:52:29.744Z,1.10
2018-01-03T03:54:57.388Z,1.10
2018-01-03T03:57:25.076Z,2.27
2018-01-03T03:59:52.764Z,1.10
2018-01-03T04:02:20.420Z,1.00
2018-01-03T04:04:48.088Z,1.10
2018-01-03T04:07:15.755Z,1.17
2018-01-03T04:09:43.392Z,1.13
2018-01-03T04:12:11.119Z,0.67
2018-01-03T04:14:38.817Z,0.60
2018-01-03T04:17:06.472Z,0.70
2018-01-03T04:19:34.130Z,0.67
2018-01-03T04:22:01.796Z,1.00
2018-01-03T04:24:29.442Z,0.50
2018-01-03T04:26:57.170Z,0.80
2018-01-03T04:29:25.584Z,0.70
2018-01-03T04:31:53.212Z,0.73
2018-01-03T04:34:20.903Z,0.80
2018-01-03T04:36:48.582Z,0.60
2018-01-03T04:39:16.250Z,0.53
2018-01-03T04:41:43.911Z,0.70
2018-01-03T04:44:11.585Z,0.70
2018-01-03T04:46:39.988Z,0.70
2018-01-03T04:49:07.696Z,0.87
2018-01-03T04:51:35.361Z,0.70
2018-01-03T04:54:03.039Z,0.63
2018-01-03T04:56:30.717Z,0.60
2018-01-03T04:58:59.151Z,0.70
2018-01-03T05:01:27.595Z,0.70
2018-01-03T05:03:55.281Z,0.67
2018-01-03T05:06:22.941Z,0.60
2018-01-03T05:08:50.923Z,0.70
2018-01-03T05:11:18.602Z,0.60
2018-01-03T05:13:46.264Z,0.57
2018-01-03T05:16:13.971Z,0.70
2018-01-03T05:18:41.628Z,0.57
2018-01-03T05:21:09.288Z,0.60
2018-01-03T05:23:36.972Z,0.50
2018-01-03T05:26:04.640Z,0.60
2018-01-03T05:28:32.305Z,0.60
2018-01-03T05:30:59.932Z,0.53
2018-01-03T05:33:27.580Z,0.50
2018-01-03T05:35:55.249Z,0.50
2018-01-03T05:38:22.922Z,0.40
2018-01-03T05:40:50.601Z,0.50
2018-01-03T05:43:18.276Z,0.50
2018-01-03T05:45:45.928Z,0.60
2018-01-03T05:48:13.633Z,0.50
2018-01-03T05:50:41.299Z,0.50
2018-01-03T05:53:08.932Z,0.67
2018-01-03T05:55:36.612Z,0.60
2018-01-03T05:58:05.035Z,0.50
2018-01-03T06:00:32.756Z,0.70
2018-01-03T06:03:00.420Z,0.80
2018-01-03T06:05:28.124Z,0.80
2018-01-03T06:07:55.760Z,0.60
2018-01-03T06:10:23.437Z,0.70
2018-01-03T06:12:51.112Z,1.10
2018-01-03T06:15:18.744Z,0.63
2018-01-03T06:17:46.430Z,0.60
2018-01-03T06:20:14.885Z,0.60
2018-01-03T06:22:42.559Z,0.60
2018-01-03T06:25:10.234Z,0.50
2018-01-03T06:27:37.905Z,0.40
2018-01-03T06:30:05.568Z,0.67
2018-01-03T06:32:33.241Z,0.43
2018-01-03T06:35:01.679Z,0.50
2018-01-03T06:37:29.322Z,0.40
2018-01-03T06:39:56.985Z,0.40
2018-01-03T06:42:24.677Z,0.50
2018-01-03T06:44:52.325Z,0.40
2018-01-03T06:47:19.999Z,0.40
2018-01-03T06:49:47.660Z,0.40
2018-01-03T06:52:15.300Z,0.40
2018-01-03T06:54:42.965Z,0.60
2018-01-03T06:57:10.680Z,0.57
2018-01-03T06:59:39.115Z,0.60
2018-01-03T07:02:06.781Z,0.60
2018-01-03T07:04:34.435Z,0.83
2018-01-03T07:07:02.113Z,0.60
2018-01-03T07:09:29.806Z,0.50
2018-01-03T07:11:58.020Z,0.60
2018-01-03T07:14:26.378Z,0.60
2018-01-03T07:16:54.040Z,0.40
2018-01-03T07:19:21.724Z,0.80
2018-01-03T07:21:49.375Z,0.63
2018-01-03T07:24:17.039Z,0.70
2018-01-03T07:26:44.700Z,0.80
2018-01-03T07:29:12.334Z,0.70
2018-01-03T07:31:39.998Z,0.47
2018-01-03T07:34:07.679Z,0.60
2018-01-03T07:36:35.311Z,0.50
2018-01-03T07:39:03.082Z,0.40
2018-01-03T07:41:30.757Z,0.50
2018-01-03T07:43:58.397Z,0.87
2018-01-03T07:46:26.079Z,0.83
2018-01-03T07:48:53.788Z,0.60
2018-01-03T07:51:22.180Z,0.87
2018-01-03T07:53:49.853Z,0.70
2018-01-03T07:56:17.512Z,0.60
2018-01-03T07:58:45.151Z,0.50
2018-01-03T08:01:13.573Z,0.70
2018-01-03T08:03:41.232Z,0.40
2018-01-03T08:06:08.869Z,0.80
2018-01-03T08:08:36.537Z,0.70
2018-01-03T08:11:04.195Z,0.67
2018-01-03T08:13:31.817Z,1.10
2018-01-03T08:16:00.265Z,0.70
2018-01-03T08:18:27.956Z,0.50
2018-01-03T08:20:56.914Z,0.60
2018-01-03T08:23:25.301Z,0.90
2018-01-03T08:25:53.644Z,0.80
2018-01-03T08:28:21.904Z,0.40
2018-01-03T08:30:49.558Z,0.40
2018-01-03T08:33:17.254Z,0.40
2018-01-03T08:35:44.892Z,0.50
2018-01-03T08:38:12.582Z,0.50
2018-01-03T08:40:40.257Z,0.40
2018-01-03T08:43:07.914Z,0.50
2018-01-03T08:45:35.601Z,0.50
2018-01-03T08:48:04.053Z,0.40
2018-01-03T08:50:31.740Z,0.40
2018-01-03T08:53:00.173Z,0.40
2018-01-03T08:55:27.840Z,0.40
2018-01-03T08:57:56.229Z,0.40
2018-01-03T09:00:23.904Z,0.43
2018-01-03T09:02:51.569Z,0.40
2018-01-03T09:05:19.973Z,0.30
2018-01-03T09:07:47.661Z,0.57
2018-01-03T09:10:15.339Z,0.40
2018-01-03T09:12:43.017Z,0.40
2018-01-03T09:15:11.466Z,0.50
2018-01-03T09:17:39.169Z,0.40
2018-01-03T09:20:07.609Z,0.50
2018-01-03T09:22:36.296Z,0.60
2018-01-03T09:25:04.029Z,0.60
2018-01-03T09:27:31.665Z,0.80
2018-01-03T09:30:00.095Z,0.67
2018-01-03T09:32:27.755Z,0.57
2018-01-03T09:34:55.405Z,0.60
2018-01-03T09:37:23.092Z,0.60
2018-01-03T09:39:50.756Z,0.60
2018-01-03T09:42:18.393Z,0.70
2018-01-03T09:44:46.131Z,0.57
2018-01-03T09:47:13.809Z,0.70
2018-01-03T09:49:41.488Z,0.60
2018-01-03T09:52:09.185Z,0.43
2018-01-03T09:54:37.632Z,0.50
2018-01-03T09:57:05.356Z,0.47
2018-01-03T09:59:33.052Z,0.63
2018-01-03T10:02:00.720Z,0.40
2018-01-03T10:04:28.360Z,0.50
2018-01-03T10:06:56.015Z,0.60
2018-01-03T10:09:23.676Z,0.47
2018-01-03T10:11:51.307Z,0.63
2018-01-03T10:14:19.017Z,0.80
2018-01-03T10:16:46.699Z,0.40
2018-01-03T10:19:15.112Z,0.60
2018-01-03T10:21:42.779Z,0.50
2018-01-03T10:24:10.497Z,0.50
2018-01-03T10:26:38.893Z,0.50
2018-01-03T10:29:07.377Z,0.60
2018-01-03T10:31:35.045Z,0.60
2018-01-03T10:34:02.676Z,0.50
2018-01-03T10:36:31.108Z,0.90
2018-01-03T10:38:58.768Z,0.70
2018-01-03T10:41:26.388Z,0.67
2018-01-03T10:43:54.832Z,0.60
2018-01-03T10:46:22.505Z,0.40
2018-01-03T10:48:50.128Z,0.70
2018-01-03T10:51:17.789Z,0.53
2018-01-03T10:53:45.464Z,0.50
2018-01-03T10:56:13.102Z,0.53
2018-01-03T10:58:40.771Z,0.60
2018-01-03T11:01:08.450Z,0.40
2018-01-03T11:03:36.088Z,0.50
2018-01-03T11:06:03.769Z,0.67
2018-01-03T11:08:31.432Z,0.50
2018-01-03T11:10:59.144Z,0.50
2018-01-03T11:13:26.813Z,0.60
2018-01-03T11:15:55.402Z,0.87
2018-01-03T11:18:23.038Z,0.40
2018-01-03T11:20:50.731Z,0.60
2018-01-03T11:23:18.392Z,0.50
2018-01-03T11:25:46.029Z,0.83
2018-01-03T11:28:13.711Z,0.63
2018-01-03T11:30:41.382Z,0.50
2018-01-03T11:33:09.077Z,0.60
2018-01-03T11:35:36.760Z,0.53
2018-01-03T11:38:04.433Z,0.40
2018-01-03T11:40:32.788Z,0.40
2018-01-03T11:43:01.245Z,0.50
2018-01-03T11:45:28.933Z,0.50
2018-01-03T11:47:57.355Z,0.70
2018-01-03T11:50:25.037Z,0.40
2018-01-03T11:52:52.698Z,0.50
2018-01-03T11:55:20.329Z,0.60
2018-01-03T11:57:47.980Z,0.40
2018-01-03T12:00:15.657Z,0.40
2018-01-03T12:02:43.285Z,0.40
2018-01-03T12:05:10.950Z,0.50
2018-01-03T12:07:38.616Z,0.60
2018-01-03T12:10:06.241Z,1.00
2018-01-03T12:12:38.378Z,0.40
2018-01-03T12:15:06.073Z,0.30
2018-01-03T12:17:34.464Z,0.30
2018-01-03T12:20:02.148Z,0.40
2018-01-03T12:22:29.796Z,0.40
2018-01-03T12:24:57.455Z,0.43
2018-01-03T12:27:25.125Z,0.40
2018-01-03T12:29:52.789Z,0.40
2018-01-03T12:32:20.436Z,0.60
2018-01-03T12:34:48.127Z,0.40
2018-01-03T12:37:15.802Z,0.47
2018-01-03T12:39:43.433Z,0.30
2018-01-03T12:42:11.096Z,0.40
2018-01-03T12:44:38.756Z,0.40
2018-01-03T12:47:06.381Z,0.53
2018-01-03T12:49:34.052Z,0.50
2018-01-03T12:52:01.729Z,0.50
2018-01-03T12:54:29.396Z,0.50
2018-01-03T12:56:57.056Z,0.70
2018-01-03T12:59:24.720Z,1.00
2018-01-03T13:01:52.355Z,0.40
2018-01-03T13:04:20.030Z,0.60
2018-01-03T13:06:47.698Z,0.47
2018-01-03T13:09:15.715Z,0.50
2018-01-03T13:11:44.173Z,0.50
2018-01-03T13:14:11.856Z,1.17
2018-01-03T13:16:40.277Z,0.73
2018-01-03T13:19:07.940Z,0.57
2018-01-03T13:21:35.616Z,0.80
2018-01-03T13:24:03.252Z,0.77
2018-01-03T13:26:30.920Z,0.60
2018-01-03T13:28:58.591Z,0.60
2018-01-03T13:31:26.237Z,0.73
2018-01-03T13:33:53.993Z,1.00
2018-01-03T13:36:21.685Z,0.80
2018-01-03T13:38:49.325Z,1.07
2018-01-03T13:41:17.008Z,0.93
2018-01-03T13:43:44.675Z,0.80
2018-01-03T13:46:12.304Z,0.70
2018-01-03T13:48:40.000Z,1.10
2018-01-03T13:51:07.772Z,0.90
2018-01-03T13:53:35.486Z,1.40
2018-01-03T13:56:03.150Z,1.60
2018-01-03T13:58:30.846Z,1.30
2018-01-03T14:00:58.520Z,0.97
2018-01-03T14:03:26.957Z,0.60
2018-01-03T14:05:54.627Z,0.60
2018-01-03T14:08:22.311Z,0.80
2018-01-03T14:10:49.971Z,0.97
2018-01-03T14:13:17.693Z,0.60
2018-01-03T14:15:45.368Z,0.90
2018-01-03T14:18:13.033Z,0.67
2018-01-03T14:20:41.513Z,0.80
2018-01-03T14:23:09.149Z,0.70
2018-01-03T14:25:36.813Z,0.60
2018-01-03T14:28:04.487Z,0.67
2018-01-03T14:30:32.116Z,0.80
2018-01-03T14:32:59.784Z,0.70
2018-01-03T14:35:27.443Z,1.43
2018-01-03T14:37:55.082Z,1.10
2018-01-03T14:40:22.773Z,0.90
2018-01-03T14:42:50.441Z,0.90
2018-01-03T14:45:18.082Z,0.70
2018-01-03T14:47:45.753Z,0.77
2018-01-03T14:50:13.420Z,0.90
2018-01-03T14:52:41.066Z,0.80
2018-01-03T14:55:08.753Z,0.97
2018-01-03T14:57:36.413Z,0.90
2018-01-03T15:00:04.152Z,1.00
2018-01-03T15:02:32.592Z,1.43
2018-01-03T15:05:01.040Z,0.80
2018-01-03T15:07:28.677Z,1.27
2018-01-03T15:09:56.390Z,0.73
2018-01-03T15:12:24.812Z,0.77
2018-01-03T15:14:52.451Z,0.90
2018-01-03T15:17:20.128Z,1.13
2018-01-03T15:19:47.837Z,1.10
2018-01-03T15:22:16.240Z,1.00
2018-01-03T15:24:43.912Z,0.83
2018-01-03T15:27:11.600Z,0.80
2018-01-03T15:29:39.215Z,0.90
2018-01-03T15:32:06.900Z,0.70
2018-01-03T15:34:34.565Z,1.10
2018-01-03T15:37:02.192Z,1.17
2018-01-03T15:39:30.630Z,0.87
2018-01-03T15:41:58.297Z,1.00
2018-01-03T15:44:25.932Z,0.90
2018-01-03T15:46:53.608Z,0.70
2018-01-03T15:49:21.290Z,1.40
2018-01-03T15:51:49.706Z,0.87
2018-01-03T15:54:17.948Z,1.10
2018-01-03T15:56:45.744Z,0.83
2018-01-03T15:59:13.385Z,0.90
2018-01-03T16:01:41.808Z,1.17
2018-01-03T16:04:09.468Z,1.03
2018-01-03T16:06:37.126Z,0.90
2018-01-03T16:09:04.896Z,1.30
2018-01-03T16:11:32.585Z,0.87
2018-01-03T16:14:00.233Z,1.53
2018-01-03T16:16:27.904Z,0.90
2018-01-03T16:18:55.565Z,0.80
2018-01-03T16:21:23.185Z,0.90
2018-01-03T16:23:50.844Z,1.30
2018-01-03T16:26:18.529Z,1.10
2018-01-03T16:28:46.156Z,0.87
2018-01-03T16:31:13.839Z,1.47
2018-01-03T16:33:41.490Z,1.17
2018-01-03T16:36:09.115Z,1.10
2018-01-03T16:38:36.836Z,0.90
2018-01-03T16:41:04.554Z,1.13
2018-01-03T16:43:32.236Z,1.20
2018-01-03T16:45:59.923Z,1.90
2018-01-03T16:48:27.588Z,2.20
2018-01-03T16:50:55.223Z,1.27
2018-01-03T16:53:22.885Z,1.40
2018-01-03T16:55:50.568Z,1.67
2018-01-03T16:58:18.197Z,1.43
2018-01-03T17:00:45.900Z,5.07
2018-01-03T17:03:14.349Z,8.00
2018-01-03T17:05:41.977Z,12.87
2018-01-03T17:08:09.732Z,4.10
2018-01-03T17:10:37.435Z,5.77
2018-01-03T17:13:05.078Z,4.87
2018-01-03T17:15:32.780Z,1.77
2018-01-03T17:18:00.452Z,3.50
2018-01-03T17:20:28.098Z,6.93
2018-01-03T17:22:55.790Z,1.90
2018-01-03T17:25:23.460Z,1.60
2018-01-03T17:27:51.110Z,2.40
2018-01-03T17:30:18.777Z,2.40
2018-01-03T17:32:46.464Z,1.73
2018-01-03T17:35:14.164Z,1.30
2018-01-03T17:37:42.613Z,3.53
2018-01-03T17:40:10.283Z,1.67
2018-01-03T17:42:37.920Z,1.33
2018-01-03T17:45:05.627Z,1.70
2018-01-03T17:47:34.097Z,1.10
2018-01-03T17:50:01.735Z,1.70
2018-01-03T17:52:29.398Z,1.53
2018-01-03T17:54:57.064Z,1.27
2018-01-03T17:57:24.701Z,1.90
2018-01-03T17:59:52.368Z,1.20
2018-01-03T18:02:20.075Z,1.50
2018-01-03T18:04:48.523Z,1.67
2018-01-03T18:07:16.230Z,3.20
2018-01-03T18:09:43.895Z,2.20
2018-01-03T18:12:11.528Z,3.00
2018-01-03T18:14:39.220Z,4.10
2018-01-03T18:17:06.905Z,2.07
2018-01-03T18:19:34.533Z,2.23
2018-01-03T18:22:02.197Z,1.67
2018-01-03T18:24:29.899Z,1.47
2018-01-03T18:26:57.544Z,1.90
2018-01-03T18:29:25.208Z,1.70
2018-01-03T18:31:52.865Z,1.93
2018-01-03T18:34:20.520Z,2.50
2018-01-03T18:36:48.269Z,1.80
2018-01-03T18:39:16.030Z,2.33
2018-01-03T18:41:43.657Z,2.60
2018-01-03T18:44:12.088Z,2.63
2018-01-03T18:46:39.972Z,2.10
2018-01-03T18:49:08.614Z,2.40
2018-01-03T18:51:37.638Z,2.10
2018-01-03T18:54:05.404Z,3.40
2018-01-03T18:56:33.199Z,3.00
2018-01-03T18:59:01.092Z,2.50
2018-01-03T19:01:28.825Z,3.10
2018-01-03T19:03:57.342Z,3.17
2018-01-03T19:06:25.252Z,3.43
2018-01-03T19:08:53.160Z,2.87
2018-01-03T19:11:21.092Z,2.10
2018-01-03T19:13:49.022Z,2.20
2018-01-03T19:16:16.920Z,2.10
2018-01-03T19:18:44.835Z,2.37
2018-01-03T19:21:12.731Z,2.00
2018-01-03T19:23:40.652Z,2.70
2018-01-03T19:26:08.545Z,2.53
2018-01-03T19:28:36.549Z,2.00
2018-01-03T19:31:04.518Z,2.10
2018-01-03T19:33:32.428Z,2.40
2018-01-03T19:36:00.326Z,2.07
2018-01-03T19:38:28.318Z,1.67
2018-01-03T19:40:56.180Z,9.23
2018-01-03T19:43:24.135Z,2.07
2018-01-03T19:45:52.065Z,2.13
2018-01-03T19:48:19.986Z,2.60
2018-01-03T19:50:47.894Z,2.30
2018-01-03T19:53:15.936Z,2.23
2018-01-03T19:55:43.812Z,2.20
2018-01-03T19:58:11.702Z,2.00
2018-01-03T20:00:39.533Z,1.83
2018-01-03T20:03:07.301Z,2.57
2018-01-03T20:05:35.101Z,2.27
2018-01-03T20:08:02.853Z,1.83
2018-01-03T20:10:30.537Z,1.60
2018-01-03T20:12:58.235Z,3.37
2018-01-03T20:15:26.686Z,2.77
2018-01-03T20:17:55.223Z,2.63
2018-01-03T20:20:23.006Z,1.43
2018-01-03T20:22:50.739Z,2.50
2018-01-03T20:25:18.449Z,1.70
2018-01-03T20:27:46.189Z,2.30
2018-01-03T20:30:13.926Z,1.90
2018-01-03T20:32:41.628Z,2.10
2018-01-03T20:35:09.380Z,1.70
2018-01-03T20:37:37.199Z,1.80
2018-01-03T20:40:05.727Z,2.80
2018-01-03T20:42:33.492Z,2.13
2018-01-03T20:45:01.738Z,2.30
2018-01-03T20:47:29.436Z,1.90
2018-01-03T20:49:57.283Z,1.80
2018-01-03T20:52:25.841Z,2.10
2018-01-03T20:54:53.606Z,2.17
2018-01-03T20:57:21.343Z,2.00
2018-01-03T20:59:49.907Z,1.90
2018-01-03T21:02:17.543Z,1.83
2018-01-03T21:04:45.216Z,1.90
2018-01-03T21:07:12.922Z,1.83
2018-01-03T21:09:40.556Z,1.73
2018-01-03T21:12:08.242Z,2.00
2018-01-03T21:14:35.923Z,2.43
2018-01-03T21:17:03.550Z,2.60
2018-01-03T21:19:31.209Z,2.57
2018-01-03T21:21:59.636Z,2.30
2018-01-03T21:24:27.265Z,2.23
2018-01-03T21:26:54.913Z,2.10
2018-01-03T21:29:22.643Z,2.63
2018-01-03T21:31:51.285Z,1.53
2018-01-03T21:34:19.137Z,1.83
2018-01-03T21:36:47.095Z,2.23
2018-01-03T21:39:14.952Z,1.50
2018-01-03T21:41:43.080Z,1.50
2018-01-03T21:44:11.110Z,2.00
2018-01-03T21:46:39.008Z,1.77
2018-01-03T21:49:06.953Z,1.60
2018-01-03T21:51:34.933Z,1.97
2018-01-03T21:54:02.600Z,1.83
2018-01-03T21:56:30.575Z,1.70
2018-01-03T21:58:58.365Z,2.20
2018-01-03T22:01:26.908Z,1.97
2018-01-03T22:03:54.792Z,1.80
2018-01-03T22:06:22.633Z,1.50
2018-01-03T22:08:50.501Z,2.77
2018-01-03T22:11:18.341Z,2.30
2018-01-03T22:13:46.085Z,1.70
2018-01-03T22:16:14.629Z,1.33
2018-01-03T22:18:42.353Z,1.60
2018-01-03T22:21:10.047Z,2.27
2018-01-03T22:23:37.689Z,2.33
2018-01-03T22:26:05.491Z,1.30
2018-01-03T22:28:34.004Z,3.23
2018-01-03T22:31:01.784Z,1.80
2018-01-03T22:33:29.563Z,1.50
2018-01-03T22:35:57.588Z,1.40
2018-01-03T22:38:25.477Z,1.97
2018-01-03T22:40:53.327Z,2.20
2018-01-03T22:43:21.103Z,1.50
2018-01-03T22:45:48.774Z,2.07
2018-01-03T22:48:16.461Z,1.70
2018-01-03T22:50:44.120Z,2.70
2018-01-03T22:53:11.873Z,2.20
2018-01-03T22:55:39.635Z,1.80
2018-01-03T22:58:07.510Z,1.57
2018-01-03T23:00:35.425Z,2.40
2018-01-03T23:03:03.195Z,1.70
2018-01-03T23:05:30.909Z,2.40
2018-01-03T23:07:59.493Z,1.97
2018-01-03T23:10:28.141Z,1.93
2018-01-03T23:12:55.917Z,2.20
2018-01-03T23:15:23.625Z,2.03
2018-01-03T23:17:51.308Z,2.23
2018-01-03T23:20:18.969Z,2.63
2018-01-03T23:22:46.685Z,2.20
2018-01-03T23:25:15.147Z,1.60
2018-01-03T23:27:43.106Z,1.93
2018-01-03T23:30:10.953Z,2.20
2018-01-03T23:32:38.826Z,2.97
2018-01-03T23:35:06.708Z,1.67
2018-01-03T23:37:34.691Z,2.43
2018-01-03T23:40:02.603Z,1.67
2018-01-03T23:42:30.347Z,1.87
2018-01-03T23:44:58.057Z,1.50
2018-01-03T23:47:25.745Z,1.27
2018-01-03T23:49:54.179Z,2.00
2018-01-03T23:52:21.937Z,1.27
2018-01-03T23:54:49.668Z,2.10
2018-01-03T23:57:17.481Z,1.90
2018-01-03T23:59:45.314Z,1.87
